Time;durP1;ratioP1;P1;durP2;ratioP2;P2;SDS_P1;SDS_P2;PMS_P1;PMS_P2;Temp;Humidity;BMP_temperature;BMP_pressure;BME280_temperature;BME280_humidity;BME280_pressure;Samples;Min_cycle;Max_cycle;Signal;HPM_P1;HPM_P2
2022/09/17 00:01:29;;;;;;;8.77;4.28;;;25.50;99.90;;;;;;5029727;28;20045;-72
2022/09/17 00:04:02;;;;;;;8.55;4.35;;;25.70;99.90;;;;;;5012931;28;20069;-74
2022/09/17 00:06:32;;;;;;;11.32;3.92;;;25.60;99.90;;;;;;5012993;28;20051;-72
2022/09/17 00:09:01;;;;;;;8.30;4.35;;;25.70;99.90;;;;;;5012117;28;20057;-74
2022/09/17 00:11:30;;;;;;;10.32;4.78;;;25.70;99.90;;;;;;5012854;28;20037;-71
2022/09/17 00:14:01;;;;;;;9.70;4.18;;;25.80;99.90;;;;;;5012750;28;20455;-73
2022/09/17 00:16:41;;;;;;;8.35;4.75;;;25.80;99.90;;;;;;5029399;28;20044;-72
2022/09/17 00:19:14;;;;;;;11.25;4.78;;;25.70;99.90;;;;;;4996993;28;20057;-72
2022/09/17 00:21:42;;;;;;;9.55;4.75;;;25.80;99.90;;;;;;5047303;28;20045;-73
2022/09/17 00:24:12;;;;;;;15.27;4.10;;;25.80;99.90;;;;;;5047372;28;20041;-72
2022/09/17 00:26:40;;;;;;;7.72;3.85;;;25.80;99.90;;;;;;5029277;28;20044;-72
2022/09/17 00:29:08;;;;;;;8.00;4.15;;;25.80;99.90;;;;;;5012925;28;20044;-70
2022/09/17 00:31:36;;;;;;;10.55;4.70;;;25.90;99.90;;;;;;5028634;28;20143;-70
2022/09/17 00:34:05;;;;;;;10.88;5.07;;;25.90;99.90;;;;;;5047047;28;20076;-72
2022/09/17 00:36:38;;;;;;;10.38;4.05;;;25.90;99.90;;;;;;5016124;28;20056;-70
2022/09/17 00:39:08;;;;;;;8.20;4.10;;;25.90;99.90;;;;;;5031848;28;20045;-70
2022/09/17 00:41:37;;;;;;;13.82;4.10;;;25.90;99.90;;;;;;5033015;28;20064;-70
2022/09/17 00:44:35;;;;;;;11.82;4.80;;;25.90;99.90;;;;;;5032424;28;20080;-71
2022/09/17 00:47:03;;;;;;;14.00;5.70;;;25.90;99.90;;;;;;5050547;28;20049;-71
2022/09/17 00:49:31;;;;;;;8.70;4.53;;;26.00;99.90;;;;;;5049962;28;20040;-70
2022/09/17 00:52:07;;;;;;;7.65;4.63;;;25.90;99.90;;;;;;5050303;28;20053;-70
2022/09/17 00:54:38;;;;;;;10.82;4.65;;;26.00;99.90;;;;;;5050227;28;20052;-70
2022/09/17 00:57:06;;;;;;;9.90;4.35;;;25.90;99.90;;;;;;5050282;28;20475;-71
2022/09/17 00:59:34;;;;;;;10.02;4.35;;;25.90;99.90;;;;;;5031973;28;20435;-70
2022/09/17 01:02:03;;;;;;;8.40;4.95;;;26.00;99.90;;;;;;5032312;28;20060;-69
2022/09/17 01:04:30;;;;;;;13.82;5.38;;;26.00;99.90;;;;;;5049649;28;20103;-70
2022/09/17 01:07:19;;;;;;;10.80;4.63;;;26.00;99.90;;;;;;5031975;28;20069;-73
2022/09/17 01:09:52;;;;;;;12.05;5.85;;;26.10;99.90;;;;;;5015648;28;20084;-72
2022/09/17 01:12:52;;;;;;;9.88;4.28;;;26.10;99.90;;;;;;5015634;28;20475;-75
2022/09/17 01:15:34;;;;;;;7.68;4.43;;;26.10;99.90;;;;;;5049871;28;20187;-72
2022/09/17 01:18:21;;;;;;;14.55;4.78;;;26.10;99.90;;;;;;4999513;28;20057;-73
2022/09/17 01:21:00;;;;;;;8.68;3.72;;;26.10;99.90;;;;;;5032004;28;20091;-72
2022/09/17 01:23:55;;;;;;;11.13;4.80;;;26.10;99.90;;;;;;5032086;28;20060;-74
2022/09/17 01:26:28;;;;;;;10.77;4.20;;;26.10;99.90;;;;;;5015605;28;20371;-72
2022/09/17 01:29:42;;;;;;;9.10;3.75;;;26.10;99.90;;;;;;5015887;28;20060;-73
2022/09/17 01:32:32;;;;;;;12.60;5.75;;;26.10;99.90;;;;;;5037027;28;20056;-73
2022/09/17 01:35:23;;;;;;;10.90;4.30;;;26.10;99.90;;;;;;5031893;28;20482;-74
2022/09/17 01:37:50;;;;;;;12.00;4.47;;;26.10;99.90;;;;;;5031509;28;20124;-74
2022/09/17 01:40:28;;;;;;;10.45;5.30;;;26.10;99.90;;;;;;5031579;28;20072;-72
2022/09/17 01:43:03;;;;;;;13.32;4.05;;;26.00;99.90;;;;;;5014935;28;20399;-72
2022/09/17 01:45:46;;;;;;;10.38;3.75;;;26.00;99.90;;;;;;5014440;28;20048;-72
2022/09/17 01:48:28;;;;;;;9.73;3.95;;;26.00;99.90;;;;;;5031368;28;20476;-73
2022/09/17 01:51:05;;;;;;;7.97;4.47;;;26.00;99.90;;;;;;5031578;28;20053;-73
2022/09/17 01:53:59;;;;;;;8.63;3.70;;;25.80;99.90;;;;;;5031258;28;20173;-73
2022/09/17 01:56:43;;;;;;;10.52;3.75;;;25.80;99.90;;;;;;5014647;28;20087;-76
2022/09/17 01:59:17;;;;;;;7.72;3.47;;;25.70;99.90;;;;;;5049003;28;20145;-73
2022/09/17 02:01:50;;;;;;;13.02;4.05;;;25.70;99.90;;;;;;5015056;28;20057;-72
2022/09/17 02:04:36;;;;;;;15.27;4.43;;;25.70;99.90;;;;;;5031225;28;20147;-72
2022/09/17 02:07:14;;;;;;;7.65;3.85;;;25.70;99.90;;;;;;5031333;28;20402;-75
2022/09/17 02:09:50;;;;;;;5.90;3.40;;;25.70;99.90;;;;;;5048870;28;20088;-72
2022/09/17 02:12:24;;;;;;;11.65;4.40;;;25.60;99.90;;;;;;5048918;28;20459;-72
2022/09/17 02:14:56;;;;;;;10.85;3.70;;;25.70;99.90;;;;;;5031088;28;20360;-72
2022/09/17 02:17:33;;;;;;;7.70;3.80;;;25.60;99.90;;;;;;5048636;28;20045;-72
2022/09/17 02:20:01;;;;;;;12.80;3.70;;;25.70;99.90;;;;;;5048879;28;20495;-72
2022/09/17 02:22:40;;;;;;;17.45;5.50;;;25.60;99.90;;;;;;5048765;28;20083;-72
2022/09/17 02:25:26;;;;;;;11.43;5.25;;;25.40;99.90;;;;;;5048819;28;20045;-74
2022/09/17 02:28:03;;;;;;;6.93;4.30;;;25.20;99.90;;;;;;5014943;28;20151;-71
2022/09/17 02:30:31;;;;;;;5.72;3.53;;;25.10;99.90;;;;;;5030552;28;20056;-74
2022/09/17 02:33:01;;;;;;;9.13;4.25;;;24.90;99.90;;;;;;5014541;28;20063;-72
2022/09/17 02:35:32;;;;;;;8.07;4.57;;;24.80;99.90;;;;;;5014330;28;20045;-72
2022/09/17 02:38:00;;;;;;;10.07;4.07;;;24.70;99.90;;;;;;5014252;28;20494;-72
2022/09/17 02:40:31;;;;;;;10.90;4.53;;;24.60;99.90;;;;;;5014102;28;20410;-73
2022/09/17 02:43:26;;;;;;;8.77;3.63;;;24.40;99.90;;;;;;5030636;28;20053;-73
2022/09/17 02:46:06;;;;;;;17.65;4.82;;;24.40;99.90;;;;;;5048115;28;20391;-72
2022/09/17 02:49:00;;;;;;;7.72;3.80;;;24.50;99.90;;;;;;5030143;28;20045;-72
2022/09/17 02:51:50;;;;;;;9.27;4.03;;;24.60;99.90;;;;;;5030370;28;20102;-72
2022/09/17 02:55:11;;;;;;;11.68;3.83;;;24.60;99.90;;;;;;5030345;28;20044;-71
2022/09/17 02:58:11;;;;;;;8.18;3.90;;;24.60;99.90;;;;;;4985927;28;20050;-73
2022/09/17 03:00:39;;;;;;;9.20;3.90;;;24.60;99.90;;;;;;4938177;28;20074;-72
2022/09/17 03:03:45;;;;;;;9.48;3.75;;;24.50;99.90;;;;;;5002280;28;20159;-76
2022/09/17 03:06:13;;;;;;;10.55;4.47;;;24.40;99.90;;;;;;5027557;28;20137;-73
2022/09/17 03:08:41;;;;;;;8.18;3.25;;;24.40;99.90;;;;;;5013400;28;20444;-72
2022/09/17 03:11:11;;;;;;;11.48;3.65;;;24.30;99.90;;;;;;5047842;28;20080;-72
2022/09/17 03:13:39;;;;;;;20.02;5.13;;;24.30;99.90;;;;;;5013743;28;20049;-71
2022/09/17 03:16:07;;;;;;;12.27;5.07;;;24.30;99.90;;;;;;5013591;28;20523;-72
2022/09/17 03:18:35;;;;;;;6.15;3.45;;;24.20;99.90;;;;;;4997130;28;20044;-75
2022/09/17 03:21:03;;;;;;;10.43;4.57;;;24.10;99.90;;;;;;5013791;28;20057;-74
2022/09/17 03:23:31;;;;;;;11.25;3.70;;;24.10;99.90;;;;;;5047780;28;20052;-72
2022/09/17 03:25:59;;;;;;;14.05;5.10;;;24.10;99.90;;;;;;5013698;28;20085;-74
2022/09/17 03:28:27;;;;;;;13.55;4.22;;;24.10;99.90;;;;;;5029995;28;20049;-72
2022/09/17 03:30:54;;;;;;;11.00;4.22;;;24.20;99.90;;;;;;5047946;28;20041;-72
2022/09/17 03:33:22;;;;;;;18.25;4.20;;;24.20;99.90;;;;;;5030047;28;20048;-72
2022/09/17 03:35:49;;;;;;;20.63;5.57;;;24.30;99.90;;;;;;5013327;28;20574;-72
2022/09/17 03:38:17;;;;;;;13.63;5.85;;;24.30;99.90;;;;;;4996974;28;20080;-72
2022/09/17 03:40:58;;;;;;;17.23;6.70;;;24.40;99.90;;;;;;5029701;28;20151;-72
2022/09/17 03:43:26;;;;;;;11.23;5.93;;;24.40;99.90;;;;;;5030084;28;20103;-75
2022/09/17 03:45:54;;;;;;;11.15;6.22;;;24.50;99.90;;;;;;5013203;28;20471;-72
2022/09/17 03:48:21;;;;;;;13.23;6.10;;;24.40;99.90;;;;;;5029610;28;20061;-72
2022/09/17 03:50:49;;;;;;;13.52;6.25;;;24.40;99.90;;;;;;5012967;28;20407;-72
2022/09/17 03:53:17;;;;;;;10.55;6.15;;;24.50;99.90;;;;;;5013115;28;20041;-71
2022/09/17 03:55:44;;;;;;;10.02;6.05;;;24.50;99.90;;;;;;5047435;28;20099;-72
2022/09/17 03:58:12;;;;;;;10.02;5.85;;;24.50;99.90;;;;;;5029587;28;20182;-75
2022/09/17 04:00:40;;;;;;;12.63;6.53;;;24.50;99.90;;;;;;5046942;28;20399;-72
2022/09/17 04:03:08;;;;;;;13.52;6.32;;;24.40;99.90;;;;;;5029496;28;20041;-74
2022/09/17 04:05:35;;;;;;;10.85;6.30;;;24.30;99.90;;;;;;5047482;28;20154;-72
2022/09/17 04:08:03;;;;;;;14.23;5.28;;;24.20;99.90;;;;;;5029635;28;20144;-72
2022/09/17 04:10:30;;;;;;;9.27;4.88;;;24.30;99.90;;;;;;5032709;28;20106;-72
2022/09/17 04:12:58;;;;;;;7.65;5.22;;;24.30;99.90;;;;;;5032859;28;20558;-74
2022/09/17 04:15:26;;;;;;;14.10;4.65;;;24.20;99.90;;;;;;5033155;28;20044;-74
2022/09/17 04:17:56;;;;;;;12.57;6.18;;;24.30;99.90;;;;;;5016550;28;20433;-73
2022/09/17 04:20:25;;;;;;;12.57;7.47;;;24.20;99.90;;;;;;5050687;28;20049;-74
2022/09/17 04:22:52;;;;;;;12.65;7.15;;;24.30;99.90;;;;;;5032980;28;20138;-72
2022/09/17 04:25:20;;;;;;;13.98;7.25;;;24.30;99.90;;;;;;5016769;28;20048;-75
2022/09/17 04:27:47;;;;;;;10.52;6.18;;;24.30;99.90;;;;;;5050991;28;20124;-72
2022/09/17 04:30:15;;;;;;;13.68;6.40;;;24.30;99.90;;;;;;5016771;28;20143;-72
2022/09/17 04:32:44;;;;;;;9.23;6.03;;;24.40;99.90;;;;;;5017229;28;20236;-72
2022/09/17 04:35:12;;;;;;;14.23;6.20;;;24.40;99.90;;;;;;5016882;28;20107;-74
2022/09/17 04:37:40;;;;;;;11.50;6.10;;;24.40;99.90;;;;;;5033502;28;20541;-71
2022/09/17 04:40:08;;;;;;;12.23;6.53;;;24.50;99.90;;;;;;5032904;28;20037;-72
2022/09/17 04:42:36;;;;;;;20.75;9.13;;;24.50;99.90;;;;;;5032521;28;20048;-72
2022/09/17 04:45:03;;;;;;;11.73;6.68;;;24.50;99.90;;;;;;5016182;28;20139;-74
2022/09/17 04:47:31;;;;;;;15.88;7.68;;;24.60;99.90;;;;;;5050745;28;20041;-71
2022/09/17 04:49:58;;;;;;;10.57;6.10;;;24.60;99.90;;;;;;5032673;28;20044;-73
2022/09/17 04:52:26;;;;;;;11.55;6.90;;;24.60;99.90;;;;;;5050477;28;20045;-72
2022/09/17 04:54:56;;;;;;;12.48;6.25;;;24.70;99.90;;;;;;5032814;28;20044;-72
2022/09/17 04:57:25;;;;;;;13.73;6.88;;;24.70;99.90;;;;;;5032651;28;20394;-73
2022/09/17 04:59:52;;;;;;;9.48;7.20;;;24.60;99.90;;;;;;5016385;28;20424;-71
2022/09/17 05:02:20;;;;;;;16.15;9.27;;;24.70;99.90;;;;;;5032705;28;20064;-73
2022/09/17 05:04:47;;;;;;;12.65;6.93;;;24.70;99.90;;;;;;5050449;28;20041;-71
2022/09/17 05:07:15;;;;;;;14.70;8.32;;;24.60;99.90;;;;;;5032328;28;20464;-71
2022/09/17 05:09:43;;;;;;;14.73;7.32;;;24.70;99.90;;;;;;5032636;28;20101;-74
2022/09/17 05:12:11;;;;;;;15.23;6.50;;;24.70;99.90;;;;;;5032395;28;20045;-71
2022/09/17 05:14:39;;;;;;;11.27;7.82;;;24.80;99.90;;;;;;5032247;28;20426;-74
2022/09/17 05:17:06;;;;;;;13.60;7.97;;;24.80;99.90;;;;;;5032351;28;20044;-72
2022/09/17 05:19:34;;;;;;;22.20;9.00;;;24.80;99.90;;;;;;5015754;28;20080;-73
2022/09/17 05:22:01;;;;;;;11.07;7.03;;;24.90;99.90;;;;;;5049157;28;20422;-72
2022/09/17 05:24:29;;;;;;;11.82;8.25;;;25.00;99.90;;;;;;5031647;28;20321;-72
2022/09/17 05:26:57;;;;;;;12.57;6.30;;;25.10;99.90;;;;;;5032635;28;20048;-76
2022/09/17 05:29:25;;;;;;;11.60;6.57;;;25.20;99.90;;;;;;5050223;28;20048;-72
2022/09/17 05:31:52;;;;;;;10.95;6.53;;;25.40;99.90;;;;;;5032136;28;20104;-71
2022/09/17 05:34:20;;;;;;;14.25;7.93;;;25.40;99.90;;;;;;5049625;28;20097;-73
2022/09/17 05:36:48;;;;;;;10.10;6.40;;;25.50;99.90;;;;;;5015531;28;20049;-71
2022/09/17 05:39:15;;;;;;;11.35;6.05;;;25.60;99.90;;;;;;5032043;28;20051;-74
2022/09/17 05:41:43;;;;;;;12.05;5.93;;;25.70;99.90;;;;;;5015335;28;20387;-71
2022/09/17 05:44:10;;;;;;;17.77;8.18;;;25.70;99.90;;;;;;5049516;28;20037;-73
2022/09/17 05:46:40;;;;;;;14.38;6.13;;;25.70;99.90;;;;;;5014808;28;20045;-72
2022/09/17 05:49:07;;;;;;;14.38;7.07;;;25.70;99.90;;;;;;5031807;28;20080;-72
2022/09/17 05:51:35;;;;;;;12.50;5.97;;;25.70;99.90;;;;;;5049383;28;20155;-71
2022/09/17 05:54:03;;;;;;;13.05;5.85;;;25.50;99.90;;;;;;5049696;28;20045;-71
2022/09/17 05:56:30;;;;;;;12.15;7.20;;;25.50;99.90;;;;;;5031736;28;20057;-73
2022/09/17 05:58:58;;;;;;;11.55;7.13;;;25.40;99.90;;;;;;5031570;28;20079;-73
2022/09/17 06:01:26;;;;;;;11.35;6.47;;;25.40;99.90;;;;;;5014709;28;20056;-71
2022/09/17 06:03:54;;;;;;;13.93;6.38;;;25.40;99.90;;;;;;5031457;28;20114;-72
2022/09/17 06:06:21;;;;;;;9.77;6.32;;;25.40;99.90;;;;;;4998437;28;20095;-74
2022/09/17 06:08:49;;;;;;;12.50;6.07;;;25.30;99.90;;;;;;5048933;28;20059;-71
2022/09/17 06:11:16;;;;;;;27.35;6.20;;;25.40;99.90;;;;;;5014687;28;20132;-71
2022/09/17 06:13:44;;;;;;;12.27;6.82;;;25.40;99.90;;;;;;5049257;28;20067;-73
2022/09/17 06:16:12;;;;;;;9.82;6.20;;;25.50;99.90;;;;;;5031457;28;20135;-72
2022/09/17 06:18:39;;;;;;;10.82;6.63;;;25.40;99.90;;;;;;5048743;28;20494;-71
2022/09/17 06:21:07;;;;;;;18.77;7.13;;;25.60;99.90;;;;;;5049208;28;20119;-71
2022/09/17 06:23:36;;;;;;;18.17;7.75;;;25.80;99.90;;;;;;5049346;28;20041;-71
2022/09/17 06:26:04;;;;;;;16.58;7.30;;;26.00;99.90;;;;;;5048957;28;20475;-72
2022/09/17 06:28:32;;;;;;;9.35;6.40;;;26.10;99.90;;;;;;5048683;28;20686;-70
2022/09/17 06:31:03;;;;;;;10.00;5.65;;;26.20;99.90;;;;;;5014595;28;20056;-70
2022/09/17 06:33:31;;;;;;;13.27;6.32;;;26.30;99.90;;;;;;5031013;28;20041;-70
2022/09/17 06:36:02;;;;;;;9.93;7.45;;;26.30;99.90;;;;;;4998276;28;20045;-69
2022/09/17 06:38:31;;;;;;;15.32;6.32;;;26.30;99.90;;;;;;5048589;28;20532;-69
2022/09/17 06:40:58;;;;;;;26.25;6.15;;;26.30;99.90;;;;;;5014397;28;20171;-70
2022/09/17 06:43:26;;;;;;;7.63;3.60;;;26.10;99.90;;;;;;5030530;28;20045;-72
2022/09/17 06:45:58;;;;;;;7.30;3.10;;;25.90;99.90;;;;;;5030096;28;20491;-70
2022/09/17 06:48:28;;;;;;;7.68;3.58;;;25.70;99.90;;;;;;5013889;28;20219;-70
2022/09/17 06:51:02;;;;;;;8.13;3.25;;;25.50;99.90;;;;;;5014234;28;20099;-70
2022/09/17 06:53:30;;;;;;;10.77;2.67;;;25.40;99.90;;;;;;5014531;28;20138;-69
2022/09/17 06:55:59;;;;;;;9.00;2.80;;;25.40;99.90;;;;;;5030505;28;20059;-70
2022/09/17 06:58:30;;;;;;;8.50;3.80;;;25.40;99.90;;;;;;5013259;28;20361;-70
2022/09/17 07:01:02;;;;;;;13.85;3.40;;;25.40;99.90;;;;;;5030904;28;20057;-72
2022/09/17 07:03:30;;;;;;;11.57;3.00;;;25.50;99.90;;;;;;5013968;28;20122;-69
2022/09/17 07:05:58;;;;;;;9.95;3.17;;;25.70;99.90;;;;;;5030568;28;20071;-69
2022/09/17 07:08:26;;;;;;;12.15;4.28;;;25.70;99.90;;;;;;5047747;28;20126;-71
2022/09/17 07:10:57;;;;;;;9.77;3.72;;;25.90;99.90;;;;;;4997561;28;20120;-72
2022/09/17 07:13:25;;;;;;;8.57;3.90;;;25.90;99.90;;;;;;5030401;28;20055;-72
2022/09/17 07:15:59;;;;;;;9.10;4.65;;;25.90;99.90;;;;;;5030182;28;20133;-71
2022/09/17 07:18:27;;;;;;;11.35;4.45;;;25.90;99.90;;;;;;5029893;28;20049;-71
2022/09/17 07:20:57;;;;;;;16.52;5.20;;;25.90;99.90;;;;;;5029992;28;20135;-71
2022/09/17 07:23:29;;;;;;;14.48;4.63;;;25.80;99.90;;;;;;5030051;28;20053;-74
2022/09/17 07:25:59;;;;;;;9.52;4.03;;;25.70;99.90;;;;;;4997404;28;20049;-71
2022/09/17 07:28:28;;;;;;;15.35;4.15;;;25.60;99.90;;;;;;5013914;28;20072;-72
2022/09/17 07:30:56;;;;;;;9.90;3.97;;;25.60;99.90;;;;;;5030205;28;20052;-74
2022/09/17 07:33:26;;;;;;;10.95;3.97;;;25.50;99.90;;;;;;5013906;28;20045;-72
2022/09/17 07:35:59;;;;;;;7.00;3.20;;;25.50;99.90;;;;;;5013893;28;20102;-72
2022/09/17 07:38:28;;;;;;;9.68;3.38;;;25.50;99.90;;;;;;5013652;28;20147;-71
2022/09/17 07:41:08;;;;;;;14.45;4.20;;;25.50;99.90;;;;;;5013921;28;20072;-72
2022/09/17 07:43:35;;;;;;;18.40;5.07;;;25.50;99.90;;;;;;5031354;28;20102;-73
2022/09/17 07:46:04;;;;;;;11.80;5.00;;;25.40;99.90;;;;;;5034165;28;20494;-71
2022/09/17 07:48:32;;;;;;;16.95;5.20;;;25.30;99.90;;;;;;5051510;28;20045;-73
2022/09/17 07:50:59;;;;;;;10.93;4.13;;;25.30;99.90;;;;;;5034127;28;20471;-71
2022/09/17 07:53:27;;;;;;;10.68;3.80;;;25.30;99.90;;;;;;5051911;28;20166;-71
2022/09/17 07:55:57;;;;;;;19.08;5.53;;;25.20;99.90;;;;;;5034045;28;20076;-74
2022/09/17 07:58:29;;;;;;;15.35;4.75;;;25.20;99.90;;;;;;5033769;28;20491;-71
2022/09/17 08:01:01;;;;;;;10.77;4.07;;;25.20;99.90;;;;;;5017673;28;20060;-73
2022/09/17 08:03:29;;;;;;;16.40;4.85;;;25.20;99.90;;;;;;5017613;28;20048;-73
2022/09/17 08:06:11;;;;;;;13.10;4.38;;;25.20;99.90;;;;;;5033625;28;20045;-71
2022/09/17 08:08:39;;;;;;;13.80;4.10;;;25.20;99.90;;;;;;5051115;28;20057;-72
2022/09/17 08:11:13;;;;;;;11.10;3.35;;;25.20;99.90;;;;;;5033739;28;20045;-71
2022/09/17 08:13:42;;;;;;;10.98;3.42;;;25.20;99.90;;;;;;5034060;28;20047;-71
2022/09/17 08:16:14;;;;;;;11.60;4.40;;;25.20;99.90;;;;;;5033996;28;20518;-73
2022/09/17 08:18:42;;;;;;;15.57;3.75;;;25.10;99.90;;;;;;5033394;28;20056;-71
2022/09/17 08:21:14;;;;;;;12.38;4.20;;;25.10;99.90;;;;;;5051267;28;20045;-75
2022/09/17 08:23:42;;;;;;;10.23;4.03;;;25.10;99.90;;;;;;5033511;28;20052;-72
2022/09/17 08:26:15;;;;;;;12.38;4.75;;;25.10;99.90;;;;;;5033472;28;20671;-72
2022/09/17 08:28:53;;;;;;;8.07;3.70;;;25.00;99.90;;;;;;5051147;28;20045;-71
2022/09/17 08:31:22;;;;;;;11.73;3.60;;;24.90;99.90;;;;;;5033406;28;20044;-71
2022/09/17 08:33:50;;;;;;;14.10;5.60;;;24.80;99.90;;;;;;5033081;28;20044;-71
2022/09/17 08:36:21;;;;;;;14.27;3.95;;;24.80;99.90;;;;;;5032865;28;20049;-71
2022/09/17 08:38:55;;;;;;;16.25;5.75;;;24.80;99.90;;;;;;5033272;28;20388;-73
2022/09/17 08:41:45;;;;;;;13.32;3.70;;;24.70;99.90;;;;;;5000609;28;20091;-74
2022/09/17 08:44:17;;;;;;;13.35;4.28;;;24.80;99.90;;;;;;5033190;28;20057;-73
2022/09/17 08:46:49;;;;;;;12.05;4.25;;;24.80;99.90;;;;;;5033104;28;20493;-71
2022/09/17 08:49:43;;;;;;;17.48;5.32;;;24.80;99.90;;;;;;5032962;28;20045;-71
2022/09/17 08:52:35;;;;;;;16.13;4.55;;;24.80;99.90;;;;;;5050578;28;20056;-72
2022/09/17 08:55:39;;;;;;;10.00;4.45;;;24.80;99.90;;;;;;5014827;28;20482;-72
2022/09/17 08:58:26;;;;;;;12.80;4.68;;;24.70;99.90;;;;;;5032737;28;20499;-73
2022/09/17 09:01:22;;;;;;;13.15;4.38;;;24.70;99.90;;;;;;5016608;28;20068;-73
2022/09/17 09:04:02;;;;;;;14.07;5.05;;;24.60;99.90;;;;;;5050620;28;20509;-71
2022/09/17 09:06:35;;;;;;;13.85;4.38;;;24.30;99.90;;;;;;5050149;28;20055;-71
2022/09/17 09:09:10;;;;;;;14.82;4.57;;;24.30;99.90;;;;;;5032662;28;20056;-73
2022/09/17 09:11:41;;;;;;;7.97;4.07;;;24.30;99.90;;;;;;5032549;28;20045;-72
2022/09/17 09:14:09;;;;;;;9.52;4.10;;;24.40;99.90;;;;;;5050382;28;20048;-71
2022/09/17 09:16:40;;;;;;;14.27;4.50;;;24.40;99.90;;;;;;5032603;28;20084;-72
2022/09/17 09:19:32;;;;;;;14.70;4.32;;;24.50;99.90;;;;;;4999726;28;20084;-71
2022/09/17 09:22:04;;;;;;;15.27;5.78;;;24.60;99.90;;;;;;5032258;28;20091;-71
2022/09/17 09:25:12;;;;;;;10.15;4.95;;;24.50;99.90;;;;;;5032159;28;20041;-71
2022/09/17 09:28:02;;;;;;;13.57;5.35;;;24.50;99.90;;;;;;4999224;28;20057;-72
2022/09/17 09:31:05;;;;;;;9.20;4.53;;;24.80;99.90;;;;;;5049595;28;20037;-71
2022/09/17 09:33:38;;;;;;;12.93;5.25;;;25.10;99.90;;;;;;5002313;28;20087;-71
2022/09/17 09:36:13;;;;;;;13.52;4.72;;;25.20;99.90;;;;;;5016115;28;20127;-71
2022/09/17 09:38:49;;;;;;;9.27;4.60;;;25.30;99.90;;;;;;5032177;28;20376;-72
2022/09/17 09:41:28;;;;;;;8.60;4.45;;;25.50;99.90;;;;;;5015010;28;20099;-72
2022/09/17 09:44:08;;;;;;;8.88;5.18;;;25.60;99.90;;;;;;5032049;28;20550;-71
2022/09/17 09:46:54;;;;;;;12.77;4.15;;;25.70;99.90;;;;;;5015538;28;20384;-71
2022/09/17 09:49:44;;;;;;;10.73;4.80;;;25.80;99.90;;;;;;5015637;28;20041;-72
2022/09/17 09:52:33;;;;;;;9.32;4.32;;;26.10;99.90;;;;;;5032113;28;20071;-72
2022/09/17 09:55:22;;;;;;;9.70;5.38;;;26.10;99.90;;;;;;5032319;28;20135;-71
2022/09/17 09:58:04;;;;;;;10.85;4.93;;;26.10;99.90;;;;;;5015822;28;20049;-71
2022/09/17 10:00:36;;;;;;;16.33;6.20;;;26.00;99.90;;;;;;5031622;28;20406;-70
2022/09/17 10:03:14;;;;;;;12.80;6.75;;;26.00;99.90;;;;;;5031604;28;20041;-71
2022/09/17 10:06:15;;;;;;;11.65;5.57;;;25.90;99.90;;;;;;5014633;28;20474;-73
2022/09/17 10:09:03;;;;;;;10.43;5.00;;;26.00;99.90;;;;;;5009974;28;20061;-72
2022/09/17 10:11:34;;;;;;;15.65;6.30;;;26.00;99.90;;;;;;5020876;28;20084;-72
2022/09/17 10:14:22;;;;;;;18.00;5.88;;;26.00;99.90;;;;;;5031507;28;20177;-73
2022/09/17 10:17:10;;;;;;;13.85;5.47;;;26.10;99.90;;;;;;5014935;28;20083;-72
2022/09/17 10:19:38;;;;;;;18.23;6.40;;;26.10;99.90;;;;;;5031271;28;20068;-75
2022/09/17 10:22:22;;;;;;;12.38;6.13;;;26.00;99.90;;;;;;5048793;28;20077;-71
2022/09/17 10:24:52;;;;;;;12.18;5.45;;;26.10;99.90;;;;;;5031339;28;20481;-71
2022/09/17 10:27:21;;;;;;;9.48;4.50;;;26.00;99.90;;;;;;5030396;28;20507;-70
2022/09/17 10:30:09;;;;;;;8.68;3.50;;;25.90;99.90;;;;;;5014379;28;20055;-74
2022/09/17 10:32:37;;;;;;;6.20;3.35;;;25.90;99.90;;;;;;5038539;28;20056;-70
2022/09/17 10:35:13;;;;;;;6.43;2.70;;;25.80;99.90;;;;;;5014109;28;20048;-76
2022/09/17 10:37:42;;;;;;;7.85;3.72;;;25.60;99.90;;;;;;5014624;28;20053;-71
2022/09/17 10:40:19;;;;;;;6.22;2.88;;;25.60;99.90;;;;;;5014174;28;20416;-73
2022/09/17 10:42:49;;;;;;;10.23;3.15;;;25.60;99.90;;;;;;5049077;28;20049;-71
2022/09/17 10:45:27;;;;;;;6.00;2.70;;;25.70;99.90;;;;;;5048584;28;20076;-72
2022/09/17 10:47:58;;;;;;;7.45;3.55;;;25.60;99.90;;;;;;5030445;28;20136;-71
2022/09/17 10:50:31;;;;;;;8.90;3.67;;;25.70;99.90;;;;;;5048658;28;20048;-72
2022/09/17 10:53:06;;;;;;;8.43;2.90;;;25.50;99.90;;;;;;5030963;28;20056;-70
2022/09/17 10:55:42;;;;;;;5.88;2.20;;;25.60;99.90;;;;;;5030683;28;20043;-73
2022/09/17 10:58:36;;;;;;;9.23;3.05;;;25.40;99.90;;;;;;5048565;28;20057;-73
2022/09/17 11:01:28;;;;;;;7.53;2.53;;;25.40;99.90;;;;;;5030899;28;20405;-71
2022/09/17 11:04:25;;;;;;;7.32;2.60;;;25.30;99.90;;;;;;5030733;28;20068;-73
2022/09/17 11:07:08;;;;;;;4.97;2.50;;;25.10;99.90;;;;;;5030692;28;20116;-71
2022/09/17 11:09:54;;;;;;;6.47;1.83;;;24.90;99.90;;;;;;5013603;28;20064;-74
2022/09/17 11:12:50;;;;;;;4.03;2.03;;;24.80;99.90;;;;;;5030387;28;20070;-72
2022/09/17 11:15:20;;;;;;;4.30;2.50;;;24.80;99.90;;;;;;5048436;28;20045;-72
2022/09/17 11:17:56;;;;;;;4.25;2.22;;;24.90;99.90;;;;;;5013575;28;20091;-72
2022/09/17 11:20:52;;;;;;;6.30;2.42;;;24.90;99.90;;;;;;5030121;28;20041;-73
2022/09/17 11:23:36;;;;;;;5.05;1.85;;;24.90;99.90;;;;;;4999446;28;20053;-71
2022/09/17 11:26:21;;;;;;;9.90;2.30;;;24.80;99.90;;;;;;5014053;28;20399;-70
2022/09/17 11:29:10;;;;;;;5.93;2.97;;;24.80;99.90;;;;;;5048269;28;20813;-71
2022/09/17 11:31:59;;;;;;;8.10;3.15;;;24.70;99.90;;;;;;5048302;28;20041;-71
2022/09/17 11:34:59;;;;;;;8.77;2.72;;;24.70;99.90;;;;;;5030195;28;20057;-71
2022/09/17 11:37:57;;;;;;;7.95;2.65;;;24.70;99.90;;;;;;5047697;28;20056;-72
2022/09/17 11:40:41;;;;;;;7.03;2.63;;;24.70;99.90;;;;;;5016019;28;20076;-71
2022/09/17 11:43:15;;;;;;;7.35;2.60;;;24.80;99.90;;;;;;5030048;28;20045;-72
2022/09/17 11:45:59;;;;;;;6.10;2.25;;;25.00;99.90;;;;;;5013811;28;20045;-72
2022/09/17 11:48:45;;;;;;;4.13;1.52;;;25.20;99.90;;;;;;4997392;28;20098;-71
2022/09/17 11:51:26;;;;;;;9.57;1.98;;;25.30;99.90;;;;;;5048065;28;20130;-72
2022/09/17 11:54:06;;;;;;;8.27;3.15;;;25.40;99.90;;;;;;5014109;28;20049;-72
2022/09/17 11:56:48;;;;;;;7.80;1.85;;;25.40;99.90;;;;;;5029434;28;20056;-72
2022/09/17 11:59:36;;;;;;;4.88;2.47;;;25.40;99.90;;;;;;5030423;28;20137;-71
2022/09/17 12:02:16;;;;;;;2.55;1.80;;;25.40;99.90;;;;;;5029690;28;20413;-71
2022/09/17 12:05:05;;;;;;;2.35;1.65;;;25.50;99.90;;;;;;5029519;28;20148;-71
2022/09/17 12:07:44;;;;;;;1.88;1.20;;;25.50;99.90;;;;;;5013149;28;20558;-71
2022/09/17 12:10:30;;;;;;;4.45;1.80;;;25.50;99.90;;;;;;5029262;28;20079;-72
2022/09/17 12:13:32;;;;;;;5.03;2.17;;;25.50;99.90;;;;;;5013135;28;20103;-71
2022/09/17 12:16:43;;;;;;;3.17;1.70;;;25.60;99.90;;;;;;5029506;28;20138;-71
2022/09/17 12:19:42;;;;;;;12.73;2.13;;;25.60;99.90;;;;;;4996516;28;20202;-72
2022/09/17 12:22:15;;;;;;;3.85;1.58;;;25.60;99.90;;;;;;5029840;28;20037;-72
2022/09/17 12:24:44;;;;;;;3.17;1.52;;;25.60;99.90;;;;;;5029514;28;20049;-72
2022/09/17 12:27:39;;;;;;;11.10;2.15;;;25.60;99.90;;;;;;5029309;28;20487;-71
2022/09/17 12:30:27;;;;;;;3.90;2.22;;;25.70;99.90;;;;;;5031071;28;20513;-71
2022/09/17 12:33:40;;;;;;;6.40;1.40;;;25.70;99.90;;;;;;5051084;28;20499;-71
2022/09/17 12:36:44;;;;;;;7.18;1.75;;;25.70;99.90;;;;;;5030433;28;20450;-72
2022/09/17 12:39:41;;;;;;;3.80;1.58;;;25.70;99.90;;;;;;5023655;28;20053;-74
2022/09/17 12:42:21;;;;;;;4.50;1.60;;;25.70;99.90;;;;;;5032827;28;20139;-71
2022/09/17 12:45:14;;;;;;;7.85;2.35;;;25.70;99.90;;;;;;5016673;28;20124;-71
2022/09/17 12:48:12;;;;;;;5.68;1.77;;;25.80;99.90;;;;;;5051073;28;20049;-72
2022/09/17 12:51:23;;;;;;;5.88;1.67;;;25.90;99.90;;;;;;5032739;28;20045;-71
2022/09/17 12:54:09;;;;;;;2.30;1.50;;;26.10;99.90;;;;;;5016336;28;20037;-72
2022/09/17 12:56:49;;;;;;;5.80;1.67;;;26.20;99.90;;;;;;5050087;28;20215;-70
2022/09/17 12:59:20;;;;;;;5.88;1.95;;;26.20;99.90;;;;;;5032561;28;20049;-71
2022/09/17 13:02:01;;;;;;;7.07;2.28;;;26.20;99.90;;;;;;5032543;28;20051;-71
2022/09/17 13:05:05;;;;;;;3.92;1.55;;;26.20;99.90;;;;;;5032790;28;20052;-71
2022/09/17 13:07:52;;;;;;;6.75;1.92;;;26.40;99.90;;;;;;5032523;28;20130;-71
2022/09/17 13:10:19;;;;;;;;;;;26.70;99.90;;;;;;5032828;28;20507;-75
2022/09/17 13:13:03;;;;;;;2.28;1.60;;;26.90;99.90;;;;;;5032274;28;20350;-71
2022/09/17 13:16:00;;;;;;;9.82;1.90;;;27.00;99.90;;;;;;5032355;28;20103;-72
2022/09/17 13:18:50;;;;;;;;;;;27.10;99.90;;;;;;5028383;28;20057;-72
2022/09/17 13:21:54;;;;;;;5.82;1.60;;;27.20;99.90;;;;;;5049916;28;19929;-71
2022/09/17 13:24:26;;;;;;;11.73;3.10;;;27.30;99.90;;;;;;5032269;28;20148;-72
2022/09/17 13:26:54;;;;;;;3.78;1.40;;;27.30;99.90;;;;;;5015797;28;20153;-72